sensor_id;sensor_type;location;lat;lon;timestamp;temperature;humidity
20442;DHT22;10380;52.102;20.614;2023-12-07T00:00:13;-0.40;99.90
20442;DHT22;10380;52.102;20.614;2023-12-07T00:02:40;-0.30;99.90
20442;DHT22;10380;52.102;20.614;2023-12-07T00:05:07;-0.30;99.90
20442;DHT22;10380;52.102;20.614;2023-12-07T00:07:34;-0.30;99.90
20442;DHT22;10380;52.102;20.614;2023-12-07T00:10:01;-0.30;99.90
20442;DHT22;10380;52.102;20.614;2023-12-07T00:12:28;-0.20;99.90
20442;DHT22;10380;52.102;20.614;2023-12-07T00:14:55;-0.30;99.90
20442;DHT22;10380;52.102;20.614;2023-12-07T00:17:22;-0.30;99.90
20442;DHT22;10380;52.102;20.614;2023-12-07T00:19:50;-0.30;99.90
20442;DHT22;10380;52.102;20.614;2023-12-07T00:22:17;-0.30;99.90
20442;DHT22;10380;52.102;20.614;2023-12-07T00:24:44;-0.30;99.90
20442;DHT22;10380;52.102;20.614;2023-12-07T00:27:11;-0.30;99.90
20442;DHT22;10380;52.102;20.614;2023-12-07T00:29:38;-0.30;99.90
20442;DHT22;10380;52.102;20.614;2023-12-07T00:32:05;-0.30;99.90
20442;DHT22;10380;52.102;20.614;2023-12-07T00:34:32;-0.30;99.90
20442;DHT22;10380;52.102;20.614;2023-12-07T00:36:59;-0.30;99.90
20442;DHT22;10380;52.102;20.614;2023-12-07T00:39:26;-0.30;99.90
20442;DHT22;10380;52.102;20.614;2023-12-07T00:41:53;-0.30;99.90
20442;DHT22;10380;52.102;20.614;2023-12-07T00:44:20;-0.20;99.90
20442;DHT22;10380;52.102;20.614;2023-12-07T00:46:47;-0.20;99.90
20442;DHT22;10380;52.102;20.614;2023-12-07T00:49:14;-0.20;99.90
20442;DHT22;10380;52.102;20.614;2023-12-07T00:51:41;-0.20;99.90
20442;DHT22;10380;52.102;20.614;2023-12-07T00:54:08;-0.20;99.90
20442;DHT22;10380;52.102;20.614;2023-12-07T00:56:35;-0.20;99.90
20442;DHT22;10380;52.102;20.614;2023-12-07T00:59:04;-0.20;99.90
20442;DHT22;10380;52.102;20.614;2023-12-07T01:01:31;-0.20;99.90
20442;DHT22;10380;52.102;20.614;2023-12-07T01:03:57;-0.10;99.90
20442;DHT22;10380;52.102;20.614;2023-12-07T01:06:24;-0.10;99.90
20442;DHT22;10380;52.102;20.614;2023-12-07T01:08:51;-0.10;99.90
20442;DHT22;10380;52.102;20.614;2023-12-07T01:11:18;-0.10;99.90
20442;DHT22;10380;52.102;20.614;2023-12-07T01:13:45;-0.10;99.90
20442;DHT22;10380;52.102;20.614;2023-12-07T01:16:12;-0.10;99.90
20442;DHT22;10380;52.102;20.614;2023-12-07T01:18:39;0.00;99.90
20442;DHT22;10380;52.102;20.614;2023-12-07T01:21:06;-0.10;99.90
20442;DHT22;10380;52.102;20.614;2023-12-07T01:23:33;-0.10;99.90
20442;DHT22;10380;52.102;20.614;2023-12-07T01:26:00;-0.10;99.90
20442;DHT22;10380;52.102;20.614;2023-12-07T01:28:29;-0.10;99.90
20442;DHT22;10380;52.102;20.614;2023-12-07T01:30:56;-0.10;99.90
20442;DHT22;10380;52.102;20.614;2023-12-07T01:33:23;0.00;99.90
20442;DHT22;10380;52.102;20.614;2023-12-07T01:35:50;0.00;99.90
20442;DHT22;10380;52.102;20.614;2023-12-07T01:38:17;0.00;99.90
20442;DHT22;10380;52.102;20.614;2023-12-07T01:40:44;0.00;99.90
20442;DHT22;10380;52.102;20.614;2023-12-07T01:43:12;-0.10;99.90
20442;DHT22;10380;52.102;20.614;2023-12-07T01:45:39;0.00;99.90
20442;DHT22;10380;52.102;20.614;2023-12-07T01:48:06;0.00;99.90
20442;DHT22;10380;52.102;20.614;2023-12-07T01:50:33;0.00;99.90
20442;DHT22;10380;52.102;20.614;2023-12-07T01:53:01;0.00;99.90
20442;DHT22;10380;52.102;20.614;2023-12-07T01:55:32;0.00;99.90
20442;DHT22;10380;52.102;20.614;2023-12-07T01:58:00;0.00;99.90
20442;DHT22;10380;52.102;20.614;2023-12-07T02:00:27;0.00;99.90
20442;DHT22;10380;52.102;20.614;2023-12-07T02:02:54;0.00;99.90
20442;DHT22;10380;52.102;20.614;2023-12-07T02:05:22;0.00;99.90
20442;DHT22;10380;52.102;20.614;2023-12-07T02:07:49;0.00;99.90
20442;DHT22;10380;52.102;20.614;2023-12-07T02:10:17;0.10;99.90
20442;DHT22;10380;52.102;20.614;2023-12-07T02:12:46;0.00;99.90
20442;DHT22;10380;52.102;20.614;2023-12-07T02:15:13;0.10;99.90
20442;DHT22;10380;52.102;20.614;2023-12-07T02:20:35;0.10;99.90
20442;DHT22;10380;52.102;20.614;2023-12-07T02:23:06;0.10;99.90
20442;DHT22;10380;52.102;20.614;2023-12-07T02:25:52;0.10;99.90
20442;DHT22;10380;52.102;20.614;2023-12-07T02:28:20;0.10;99.90
20442;DHT22;10380;52.102;20.614;2023-12-07T02:30:47;0.10;99.90
20442;DHT22;10380;52.102;20.614;2023-12-07T02:33:14;0.10;99.90
20442;DHT22;10380;52.102;20.614;2023-12-07T02:35:42;0.10;99.90
20442;DHT22;10380;52.102;20.614;2023-12-07T02:38:09;0.10;99.90
20442;DHT22;10380;52.102;20.614;2023-12-07T02:40:37;0.10;99.90
20442;DHT22;10380;52.102;20.614;2023-12-07T02:43:05;0.10;99.90
20442;DHT22;10380;52.102;20.614;2023-12-07T02:45:33;0.10;99.90
20442;DHT22;10380;52.102;20.614;2023-12-07T02:48:01;0.10;99.90
20442;DHT22;10380;52.102;20.614;2023-12-07T02:50:28;0.20;99.90
20442;DHT22;10380;52.102;20.614;2023-12-07T02:52:55;0.20;99.90
20442;DHT22;10380;52.102;20.614;2023-12-07T02:55:23;0.20;99.90
20442;DHT22;10380;52.102;20.614;2023-12-07T02:57:50;0.20;99.90
20442;DHT22;10380;52.102;20.614;2023-12-07T03:00:18;0.20;99.90
20442;DHT22;10380;52.102;20.614;2023-12-07T03:02:45;0.20;99.90
20442;DHT22;10380;52.102;20.614;2023-12-07T03:05:14;0.20;99.90
20442;DHT22;10380;52.102;20.614;2023-12-07T03:07:41;0.20;99.90
20442;DHT22;10380;52.102;20.614;2023-12-07T03:10:08;0.20;99.90
20442;DHT22;10380;52.102;20.614;2023-12-07T03:12:35;0.20;99.90
20442;DHT22;10380;52.102;20.614;2023-12-07T03:15:02;0.20;99.90
20442;DHT22;10380;52.102;20.614;2023-12-07T03:17:31;0.20;99.90
20442;DHT22;10380;52.102;20.614;2023-12-07T03:19:58;0.20;99.90
20442;DHT22;10380;52.102;20.614;2023-12-07T03:22:27;0.20;99.90
20442;DHT22;10380;52.102;20.614;2023-12-07T03:24:54;0.30;99.90
20442;DHT22;10380;52.102;20.614;2023-12-07T03:27:21;0.30;99.90
20442;DHT22;10380;52.102;20.614;2023-12-07T03:29:48;0.30;99.90
20442;DHT22;10380;52.102;20.614;2023-12-07T03:32:15;0.30;99.90
20442;DHT22;10380;52.102;20.614;2023-12-07T03:34:42;0.30;99.90
20442;DHT22;10380;52.102;20.614;2023-12-07T03:37:09;0.30;99.90
20442;DHT22;10380;52.102;20.614;2023-12-07T03:39:36;0.30;99.90
20442;DHT22;10380;52.102;20.614;2023-12-07T03:42:03;0.30;99.90
20442;DHT22;10380;52.102;20.614;2023-12-07T03:44:30;0.30;99.90
20442;DHT22;10380;52.102;20.614;2023-12-07T03:46:57;0.30;99.90
20442;DHT22;10380;52.102;20.614;2023-12-07T03:49:24;0.30;99.90
20442;DHT22;10380;52.102;20.614;2023-12-07T03:51:51;0.30;99.90
20442;DHT22;10380;52.102;20.614;2023-12-07T03:54:19;0.40;99.90
20442;DHT22;10380;52.102;20.614;2023-12-07T03:56:46;0.30;99.90
20442;DHT22;10380;52.102;20.614;2023-12-07T03:59:13;0.30;99.90
20442;DHT22;10380;52.102;20.614;2023-12-07T04:01:40;0.50;99.90
20442;DHT22;10380;52.102;20.614;2023-12-07T04:04:07;0.40;99.90
20442;DHT22;10380;52.102;20.614;2023-12-07T04:06:34;0.40;99.90
20442;DHT22;10380;52.102;20.614;2023-12-07T04:09:01;0.40;99.90
20442;DHT22;10380;52.102;20.614;2023-12-07T04:11:29;0.40;99.90
20442;DHT22;10380;52.102;20.614;2023-12-07T04:13:56;0.40;99.90
20442;DHT22;10380;52.102;20.614;2023-12-07T04:16:23;0.40;99.90
20442;DHT22;10380;52.102;20.614;2023-12-07T04:18:49;0.40;99.90
20442;DHT22;10380;52.102;20.614;2023-12-07T04:21:17;0.40;99.90
20442;DHT22;10380;52.102;20.614;2023-12-07T04:23:44;0.40;99.90
20442;DHT22;10380;52.102;20.614;2023-12-07T04:26:10;0.40;99.90
20442;DHT22;10380;52.102;20.614;2023-12-07T04:28:37;0.40;99.90
20442;DHT22;10380;52.102;20.614;2023-12-07T04:31:05;0.40;99.90
20442;DHT22;10380;52.102;20.614;2023-12-07T04:33:32;0.40;99.90
20442;DHT22;10380;52.102;20.614;2023-12-07T04:35:59;0.40;99.90
20442;DHT22;10380;52.102;20.614;2023-12-07T04:38:26;0.40;99.90
20442;DHT22;10380;52.102;20.614;2023-12-07T04:40:53;0.40;99.90
20442;DHT22;10380;52.102;20.614;2023-12-07T04:43:20;0.40;99.90
20442;DHT22;10380;52.102;20.614;2023-12-07T04:45:47;0.40;99.90
20442;DHT22;10380;52.102;20.614;2023-12-07T04:48:14;0.40;99.90
20442;DHT22;10380;52.102;20.614;2023-12-07T04:50:42;0.40;99.90
20442;DHT22;10380;52.102;20.614;2023-12-07T04:53:08;0.40;99.90
20442;DHT22;10380;52.102;20.614;2023-12-07T04:55:36;0.40;99.90
20442;DHT22;10380;52.102;20.614;2023-12-07T04:58:03;0.40;99.90
20442;DHT22;10380;52.102;20.614;2023-12-07T05:00:30;0.30;99.90
20442;DHT22;10380;52.102;20.614;2023-12-07T05:02:57;0.30;99.90
20442;DHT22;10380;52.102;20.614;2023-12-07T05:05:24;0.40;99.90
20442;DHT22;10380;52.102;20.614;2023-12-07T05:07:51;0.40;99.90
20442;DHT22;10380;52.102;20.614;2023-12-07T05:10:18;0.40;99.90
20442;DHT22;10380;52.102;20.614;2023-12-07T05:12:45;0.40;99.90
20442;DHT22;10380;52.102;20.614;2023-12-07T05:15:12;0.30;99.90
20442;DHT22;10380;52.102;20.614;2023-12-07T05:17:39;0.30;99.90
20442;DHT22;10380;52.102;20.614;2023-12-07T05:20:06;0.30;99.90
20442;DHT22;10380;52.102;20.614;2023-12-07T05:22:33;0.30;99.90
20442;DHT22;10380;52.102;20.614;2023-12-07T05:25:00;0.40;99.90
20442;DHT22;10380;52.102;20.614;2023-12-07T05:27:28;0.30;99.90
20442;DHT22;10380;52.102;20.614;2023-12-07T05:29:55;0.30;99.90
20442;DHT22;10380;52.102;20.614;2023-12-07T05:32:22;0.40;99.90
20442;DHT22;10380;52.102;20.614;2023-12-07T05:34:49;0.30;99.90
20442;DHT22;10380;52.102;20.614;2023-12-07T05:37:17;0.40;99.90
20442;DHT22;10380;52.102;20.614;2023-12-07T05:39:44;0.40;99.90
20442;DHT22;10380;52.102;20.614;2023-12-07T05:42:11;0.40;99.90
20442;DHT22;10380;52.102;20.614;2023-12-07T05:44:38;0.40;99.90
20442;DHT22;10380;52.102;20.614;2023-12-07T05:47:05;0.30;99.90
20442;DHT22;10380;52.102;20.614;2023-12-07T05:49:32;0.40;99.90
20442;DHT22;10380;52.102;20.614;2023-12-07T05:51:59;0.40;99.90
20442;DHT22;10380;52.102;20.614;2023-12-07T05:54:26;0.40;99.90
20442;DHT22;10380;52.102;20.614;2023-12-07T05:56:53;0.40;99.90
20442;DHT22;10380;52.102;20.614;2023-12-07T05:59:20;0.40;99.90
20442;DHT22;10380;52.102;20.614;2023-12-07T06:01:47;0.40;99.90
20442;DHT22;10380;52.102;20.614;2023-12-07T06:04:14;0.40;99.90
20442;DHT22;10380;52.102;20.614;2023-12-07T06:06:43;0.40;99.90
20442;DHT22;10380;52.102;20.614;2023-12-07T06:09:11;0.40;99.90
20442;DHT22;10380;52.102;20.614;2023-12-07T06:11:38;0.40;99.90
20442;DHT22;10380;52.102;20.614;2023-12-07T06:14:04;0.40;99.90
20442;DHT22;10380;52.102;20.614;2023-12-07T06:16:33;0.40;99.90
20442;DHT22;10380;52.102;20.614;2023-12-07T06:19:00;0.40;99.90
20442;DHT22;10380;52.102;20.614;2023-12-07T06:21:27;0.40;99.90
20442;DHT22;10380;52.102;20.614;2023-12-07T06:23:56;0.40;99.90
20442;DHT22;10380;52.102;20.614;2023-12-07T06:26:25;0.40;99.90
20442;DHT22;10380;52.102;20.614;2023-12-07T06:28:52;0.40;99.90
20442;DHT22;10380;52.102;20.614;2023-12-07T06:31:19;0.50;99.90
20442;DHT22;10380;52.102;20.614;2023-12-07T06:33:48;0.40;99.90
20442;DHT22;10380;52.102;20.614;2023-12-07T06:36:21;0.50;99.90
20442;DHT22;10380;52.102;20.614;2023-12-07T06:38:48;0.50;99.90
20442;DHT22;10380;52.102;20.614;2023-12-07T06:41:15;0.50;99.90
20442;DHT22;10380;52.102;20.614;2023-12-07T06:43:42;0.50;99.90
20442;DHT22;10380;52.102;20.614;2023-12-07T06:46:12;0.50;99.90
20442;DHT22;10380;52.102;20.614;2023-12-07T06:48:41;0.50;99.90
20442;DHT22;10380;52.102;20.614;2023-12-07T06:51:08;0.50;99.90
20442;DHT22;10380;52.102;20.614;2023-12-07T06:53:35;0.50;99.90
20442;DHT22;10380;52.102;20.614;2023-12-07T06:56:02;0.50;99.90
20442;DHT22;10380;52.102;20.614;2023-12-07T06:58:29;0.50;99.90
20442;DHT22;10380;52.102;20.614;2023-12-07T07:00:56;0.50;99.90
20442;DHT22;10380;52.102;20.614;2023-12-07T07:03:24;0.50;99.90
20442;DHT22;10380;52.102;20.614;2023-12-07T07:05:51;0.50;99.90
20442;DHT22;10380;52.102;20.614;2023-12-07T07:08:18;0.50;99.90
20442;DHT22;10380;52.102;20.614;2023-12-07T07:10:45;0.50;99.90
20442;DHT22;10380;52.102;20.614;2023-12-07T07:13:13;0.60;99.90
20442;DHT22;10380;52.102;20.614;2023-12-07T07:15:46;0.50;99.90
20442;DHT22;10380;52.102;20.614;2023-12-07T07:18:14;0.40;99.90
20442;DHT22;10380;52.102;20.614;2023-12-07T07:20:41;0.60;99.90
20442;DHT22;10380;52.102;20.614;2023-12-07T07:23:08;0.60;99.90
20442;DHT22;10380;52.102;20.614;2023-12-07T07:25:35;0.60;99.90
20442;DHT22;10380;52.102;20.614;2023-12-07T07:28:03;0.60;99.90
20442;DHT22;10380;52.102;20.614;2023-12-07T07:30:30;0.60;99.90
20442;DHT22;10380;52.102;20.614;2023-12-07T07:32:57;0.60;99.90
20442;DHT22;10380;52.102;20.614;2023-12-07T07:35:24;0.70;99.90
20442;DHT22;10380;52.102;20.614;2023-12-07T07:37:51;0.60;99.90
20442;DHT22;10380;52.102;20.614;2023-12-07T07:40:19;0.70;99.90
20442;DHT22;10380;52.102;20.614;2023-12-07T07:42:46;0.70;99.90
20442;DHT22;10380;52.102;20.614;2023-12-07T07:45:12;0.70;99.90
20442;DHT22;10380;52.102;20.614;2023-12-07T07:47:40;0.70;99.90
20442;DHT22;10380;52.102;20.614;2023-12-07T07:50:08;0.70;99.90
20442;DHT22;10380;52.102;20.614;2023-12-07T07:52:37;0.70;99.90
20442;DHT22;10380;52.102;20.614;2023-12-07T07:55:04;0.70;99.90
20442;DHT22;10380;52.102;20.614;2023-12-07T07:57:32;0.70;99.90
20442;DHT22;10380;52.102;20.614;2023-12-07T07:59:59;0.70;99.90
20442;DHT22;10380;52.102;20.614;2023-12-07T08:02:26;0.70;99.90
20442;DHT22;10380;52.102;20.614;2023-12-07T08:04:53;0.80;99.90
20442;DHT22;10380;52.102;20.614;2023-12-07T08:07:20;0.70;99.90
20442;DHT22;10380;52.102;20.614;2023-12-07T08:09:47;0.80;99.90
20442;DHT22;10380;52.102;20.614;2023-12-07T08:12:14;0.80;99.90
20442;DHT22;10380;52.102;20.614;2023-12-07T08:14:41;0.80;99.90
20442;DHT22;10380;52.102;20.614;2023-12-07T08:17:11;0.80;99.90
20442;DHT22;10380;52.102;20.614;2023-12-07T08:19:38;0.80;99.90
20442;DHT22;10380;52.102;20.614;2023-12-07T08:22:06;0.80;99.90
20442;DHT22;10380;52.102;20.614;2023-12-07T08:24:33;0.80;99.90
20442;DHT22;10380;52.102;20.614;2023-12-07T08:27:00;0.90;99.90
20442;DHT22;10380;52.102;20.614;2023-12-07T08:29:27;0.90;99.90
20442;DHT22;10380;52.102;20.614;2023-12-07T08:31:54;0.90;99.90
20442;DHT22;10380;52.102;20.614;2023-12-07T08:34:21;0.90;99.90
20442;DHT22;10380;52.102;20.614;2023-12-07T08:36:50;1.00;99.90
20442;DHT22;10380;52.102;20.614;2023-12-07T08:39:17;1.00;99.90
20442;DHT22;10380;52.102;20.614;2023-12-07T08:41:44;1.00;99.90
20442;DHT22;10380;52.102;20.614;2023-12-07T08:44:11;1.00;99.90
20442;DHT22;10380;52.102;20.614;2023-12-07T08:46:38;1.10;99.90
20442;DHT22;10380;52.102;20.614;2023-12-07T08:49:05;1.00;99.90
20442;DHT22;10380;52.102;20.614;2023-12-07T08:51:33;1.10;99.90
20442;DHT22;10380;52.102;20.614;2023-12-07T08:54:01;1.10;99.90
20442;DHT22;10380;52.102;20.614;2023-12-07T08:56:28;1.10;99.90
20442;DHT22;10380;52.102;20.614;2023-12-07T08:58:55;1.10;99.90
20442;DHT22;10380;52.102;20.614;2023-12-07T09:01:22;1.10;99.90
20442;DHT22;10380;52.102;20.614;2023-12-07T09:03:59;1.10;99.90
20442;DHT22;10380;52.102;20.614;2023-12-07T09:06:26;1.20;99.90
20442;DHT22;10380;52.102;20.614;2023-12-07T09:08:54;1.10;99.90
20442;DHT22;10380;52.102;20.614;2023-12-07T09:11:22;1.20;99.90
20442;DHT22;10380;52.102;20.614;2023-12-07T09:13:49;1.20;99.90
20442;DHT22;10380;52.102;20.614;2023-12-07T09:16:16;1.20;99.90
20442;DHT22;10380;52.102;20.614;2023-12-07T09:18:43;1.20;99.90
20442;DHT22;10380;52.102;20.614;2023-12-07T09:21:11;1.20;99.90
20442;DHT22;10380;52.102;20.614;2023-12-07T09:23:39;1.30;99.90
20442;DHT22;10380;52.102;20.614;2023-12-07T09:26:06;1.30;99.90
20442;DHT22;10380;52.102;20.614;2023-12-07T09:28:34;1.30;99.90
20442;DHT22;10380;52.102;20.614;2023-12-07T09:31:02;1.30;99.90
20442;DHT22;10380;52.102;20.614;2023-12-07T09:33:29;1.40;99.90
20442;DHT22;10380;52.102;20.614;2023-12-07T09:35:56;1.30;99.90
20442;DHT22;10380;52.102;20.614;2023-12-07T09:38:23;1.40;99.90
20442;DHT22;10380;52.102;20.614;2023-12-07T09:40:53;1.40;99.90
20442;DHT22;10380;52.102;20.614;2023-12-07T09:43:21;1.40;99.90
20442;DHT22;10380;52.102;20.614;2023-12-07T09:45:48;1.40;99.90
20442;DHT22;10380;52.102;20.614;2023-12-07T09:48:16;1.40;99.90
20442;DHT22;10380;52.102;20.614;2023-12-07T09:50:44;1.40;99.90
20442;DHT22;10380;52.102;20.614;2023-12-07T09:53:11;1.80;99.90
20442;DHT22;10380;52.102;20.614;2023-12-07T09:55:38;1.50;99.90
20442;DHT22;10380;52.102;20.614;2023-12-07T09:58:06;1.50;99.90
20442;DHT22;10380;52.102;20.614;2023-12-07T10:00:36;1.50;99.90
20442;DHT22;10380;52.102;20.614;2023-12-07T10:03:03;1.50;99.90
20442;DHT22;10380;52.102;20.614;2023-12-07T10:05:53;1.50;99.90
20442;DHT22;10380;52.102;20.614;2023-12-07T10:08:31;1.60;99.90
20442;DHT22;10380;52.102;20.614;2023-12-07T10:11:09;1.60;99.90
20442;DHT22;10380;52.102;20.614;2023-12-07T10:13:37;1.60;99.90
20442;DHT22;10380;52.102;20.614;2023-12-07T10:18:33;1.60;99.90
20442;DHT22;10380;52.102;20.614;2023-12-07T10:21:01;1.70;99.90
20442;DHT22;10380;52.102;20.614;2023-12-07T10:23:29;1.70;99.90
20442;DHT22;10380;52.102;20.614;2023-12-07T10:25:59;1.70;99.90
20442;DHT22;10380;52.102;20.614;2023-12-07T10:28:29;1.70;99.90
20442;DHT22;10380;52.102;20.614;2023-12-07T10:30:57;1.70;99.90
20442;DHT22;10380;52.102;20.614;2023-12-07T10:33:25;1.70;99.90
20442;DHT22;10380;52.102;20.614;2023-12-07T10:35:52;1.70;99.90
20442;DHT22;10380;52.102;20.614;2023-12-07T10:38:19;1.70;99.90
20442;DHT22;10380;52.102;20.614;2023-12-07T10:40:55;1.70;99.90
20442;DHT22;10380;52.102;20.614;2023-12-07T10:43:26;1.70;99.90
20442;DHT22;10380;52.102;20.614;2023-12-07T10:45:53;1.80;99.90
20442;DHT22;10380;52.102;20.614;2023-12-07T10:48:21;1.80;99.90
20442;DHT22;10380;52.102;20.614;2023-12-07T10:50:51;1.80;99.90
20442;DHT22;10380;52.102;20.614;2023-12-07T10:53:25;1.80;99.90
20442;DHT22;10380;52.102;20.614;2023-12-07T10:55:56;1.80;99.90
20442;DHT22;10380;52.102;20.614;2023-12-07T10:58:23;1.90;99.90
20442;DHT22;10380;52.102;20.614;2023-12-07T11:00:55;1.90;99.90
20442;DHT22;10380;52.102;20.614;2023-12-07T11:03:24;1.90;99.90
20442;DHT22;10380;52.102;20.614;2023-12-07T11:05:51;1.90;99.90
20442;DHT22;10380;52.102;20.614;2023-12-07T11:08:38;1.90;99.90
20442;DHT22;10380;52.102;20.614;2023-12-07T11:11:28;1.90;99.90
20442;DHT22;10380;52.102;20.614;2023-12-07T11:14:05;2.00;99.90
20442;DHT22;10380;52.102;20.614;2023-12-07T11:16:34;2.00;99.90
20442;DHT22;10380;52.102;20.614;2023-12-07T11:19:05;2.00;99.90
20442;DHT22;10380;52.102;20.614;2023-12-07T11:22:10;2.10;99.90
20442;DHT22;10380;52.102;20.614;2023-12-07T11:24:37;2.10;99.90
20442;DHT22;10380;52.102;20.614;2023-12-07T11:27:05;2.20;99.90
20442;DHT22;10380;52.102;20.614;2023-12-07T11:29:32;2.20;99.90
20442;DHT22;10380;52.102;20.614;2023-12-07T11:32:02;2.30;99.90
20442;DHT22;10380;52.102;20.614;2023-12-07T11:34:43;2.40;99.90
20442;DHT22;10380;52.102;20.614;2023-12-07T11:37:14;2.50;99.90
20442;DHT22;10380;52.102;20.614;2023-12-07T11:39:42;2.50;99.90
20442;DHT22;10380;52.102;20.614;2023-12-07T11:44:40;2.60;99.90
20442;DHT22;10380;52.102;20.614;2023-12-07T11:47:08;2.60;99.90
20442;DHT22;10380;52.102;20.614;2023-12-07T11:49:36;2.70;99.90
20442;DHT22;10380;52.102;20.614;2023-12-07T11:52:19;2.70;99.90
20442;DHT22;10380;52.102;20.614;2023-12-07T11:54:47;2.70;99.90
20442;DHT22;10380;52.102;20.614;2023-12-07T11:57:15;2.70;99.90
20442;DHT22;10380;52.102;20.614;2023-12-07T11:59:45;2.70;99.90
20442;DHT22;10380;52.102;20.614;2023-12-07T12:02:15;2.70;99.90
20442;DHT22;10380;52.102;20.614;2023-12-07T12:04:43;2.70;99.90
20442;DHT22;10380;52.102;20.614;2023-12-07T12:07:10;2.60;99.90
20442;DHT22;10380;52.102;20.614;2023-12-07T12:09:37;2.60;99.90
20442;DHT22;10380;52.102;20.614;2023-12-07T12:12:05;2.60;99.90
20442;DHT22;10380;52.102;20.614;2023-12-07T12:14:32;2.60;99.90
20442;DHT22;10380;52.102;20.614;2023-12-07T12:16:59;2.70;99.90
20442;DHT22;10380;52.102;20.614;2023-12-07T12:19:26;2.70;99.90
20442;DHT22;10380;52.102;20.614;2023-12-07T12:22:03;2.70;99.90
20442;DHT22;10380;52.102;20.614;2023-12-07T12:24:35;2.60;99.90
20442;DHT22;10380;52.102;20.614;2023-12-07T12:27:04;2.60;99.90
20442;DHT22;10380;52.102;20.614;2023-12-07T12:29:32;2.60;99.90
20442;DHT22;10380;52.102;20.614;2023-12-07T12:32:02;2.50;99.90
20442;DHT22;10380;52.102;20.614;2023-12-07T12:34:32;2.50;99.90
20442;DHT22;10380;52.102;20.614;2023-12-07T12:36:59;2.40;99.90
20442;DHT22;10380;52.102;20.614;2023-12-07T12:39:28;2.40;99.90
20442;DHT22;10380;52.102;20.614;2023-12-07T12:42:01;2.30;99.90
20442;DHT22;10380;52.102;20.614;2023-12-07T12:44:30;2.30;99.90
20442;DHT22;10380;52.102;20.614;2023-12-07T12:47:07;2.20;99.90
20442;DHT22;10380;52.102;20.614;2023-12-07T12:49:39;2.20;99.90
20442;DHT22;10380;52.102;20.614;2023-12-07T12:52:14;2.20;99.90
20442;DHT22;10380;52.102;20.614;2023-12-07T12:54:43;2.10;99.90
20442;DHT22;10380;52.102;20.614;2023-12-07T12:57:11;2.10;99.90
20442;DHT22;10380;52.102;20.614;2023-12-07T12:59:38;2.10;99.90
20442;DHT22;10380;52.102;20.614;2023-12-07T13:02:05;2.10;99.90
20442;DHT22;10380;52.102;20.614;2023-12-07T13:04:32;2.10;99.90
20442;DHT22;10380;52.102;20.614;2023-12-07T13:07:03;2.10;99.90
20442;DHT22;10380;52.102;20.614;2023-12-07T13:09:31;2.10;99.90
20442;DHT22;10380;52.102;20.614;2023-12-07T13:11:58;2.10;99.90
20442;DHT22;10380;52.102;20.614;2023-12-07T13:14:30;2.10;99.90
20442;DHT22;10380;52.102;20.614;2023-12-07T13:16:58;2.10;99.90
20442;DHT22;10380;52.102;20.614;2023-12-07T13:19:25;2.00;99.90
20442;DHT22;10380;52.102;20.614;2023-12-07T13:21:52;2.00;99.90
20442;DHT22;10380;52.102;20.614;2023-12-07T13:24:19;2.10;99.90
20442;DHT22;10380;52.102;20.614;2023-12-07T13:26:46;1.90;99.90
20442;DHT22;10380;52.102;20.614;2023-12-07T13:29:14;1.90;99.90
20442;DHT22;10380;52.102;20.614;2023-12-07T13:31:54;1.90;99.90
20442;DHT22;10380;52.102;20.614;2023-12-07T13:34:21;1.90;99.90
20442;DHT22;10380;52.102;20.614;2023-12-07T13:36:50;1.80;99.90
20442;DHT22;10380;52.102;20.614;2023-12-07T13:39:17;1.80;99.90
20442;DHT22;10380;52.102;20.614;2023-12-07T13:41:57;1.80;99.90
20442;DHT22;10380;52.102;20.614;2023-12-07T13:44:24;1.80;99.90
20442;DHT22;10380;52.102;20.614;2023-12-07T13:46:55;1.80;99.90
20442;DHT22;10380;52.102;20.614;2023-12-07T13:49:23;1.70;99.90
20442;DHT22;10380;52.102;20.614;2023-12-07T13:52:00;1.70;99.90
20442;DHT22;10380;52.102;20.614;2023-12-07T13:54:32;1.80;99.90
20442;DHT22;10380;52.102;20.614;2023-12-07T13:57:22;1.70;99.90
20442;DHT22;10380;52.102;20.614;2023-12-07T13:59:54;2.10;99.90
20442;DHT22;10380;52.102;20.614;2023-12-07T14:02:21;1.70;99.90
20442;DHT22;10380;52.102;20.614;2023-12-07T14:04:49;1.70;99.90
20442;DHT22;10380;52.102;20.614;2023-12-07T14:07:20;1.70;99.90
20442;DHT22;10380;52.102;20.614;2023-12-07T14:09:50;1.60;99.90
20442;DHT22;10380;52.102;20.614;2023-12-07T14:12:25;1.60;99.90
20442;DHT22;10380;52.102;20.614;2023-12-07T14:14:52;1.60;99.90
20442;DHT22;10380;52.102;20.614;2023-12-07T14:17:22;1.60;99.90
20442;DHT22;10380;52.102;20.614;2023-12-07T14:20:07;1.60;99.90
20442;DHT22;10380;52.102;20.614;2023-12-07T14:22:55;1.50;99.90
20442;DHT22;10380;52.102;20.614;2023-12-07T14:25:23;1.50;99.90
20442;DHT22;10380;52.102;20.614;2023-12-07T14:27:50;1.50;99.90
20442;DHT22;10380;52.102;20.614;2023-12-07T14:30:17;1.50;99.90
20442;DHT22;10380;52.102;20.614;2023-12-07T14:32:44;1.50;99.90
20442;DHT22;10380;52.102;20.614;2023-12-07T14:35:19;1.40;99.90
20442;DHT22;10380;52.102;20.614;2023-12-07T14:37:47;1.40;99.90
20442;DHT22;10380;52.102;20.614;2023-12-07T14:40:14;1.40;99.90
20442;DHT22;10380;52.102;20.614;2023-12-07T14:42:44;1.40;99.90
20442;DHT22;10380;52.102;20.614;2023-12-07T14:45:13;1.40;99.90
20442;DHT22;10380;52.102;20.614;2023-12-07T14:47:42;1.40;99.90
20442;DHT22;10380;52.102;20.614;2023-12-07T14:50:09;1.40;99.90
20442;DHT22;10380;52.102;20.614;2023-12-07T14:52:36;1.40;99.90
20442;DHT22;10380;52.102;20.614;2023-12-07T14:55:05;1.40;99.90
20442;DHT22;10380;52.102;20.614;2023-12-07T14:57:32;1.30;99.90
20442;DHT22;10380;52.102;20.614;2023-12-07T14:59:59;1.30;99.90
20442;DHT22;10380;52.102;20.614;2023-12-07T15:02:26;1.30;99.90
20442;DHT22;10380;52.102;20.614;2023-12-07T15:04:54;1.30;99.90
20442;DHT22;10380;52.102;20.614;2023-12-07T15:07:21;1.30;99.90
20442;DHT22;10380;52.102;20.614;2023-12-07T15:09:48;1.30;99.90
20442;DHT22;10380;52.102;20.614;2023-12-07T15:12:18;1.30;99.90
20442;DHT22;10380;52.102;20.614;2023-12-07T15:14:46;1.20;99.90
20442;DHT22;10380;52.102;20.614;2023-12-07T15:17:14;1.20;99.90
20442;DHT22;10380;52.102;20.614;2023-12-07T15:19:40;1.20;99.90
20442;DHT22;10380;52.102;20.614;2023-12-07T15:22:09;1.20;99.90
20442;DHT22;10380;52.102;20.614;2023-12-07T15:24:36;1.30;99.90
20442;DHT22;10380;52.102;20.614;2023-12-07T15:27:06;1.30;99.90
20442;DHT22;10380;52.102;20.614;2023-12-07T15:29:35;1.30;99.90
20442;DHT22;10380;52.102;20.614;2023-12-07T15:32:03;1.30;99.90
20442;DHT22;10380;52.102;20.614;2023-12-07T15:34:30;1.30;99.90
20442;DHT22;10380;52.102;20.614;2023-12-07T15:37:09;1.30;99.90
20442;DHT22;10380;52.102;20.614;2023-12-07T15:39:41;1.30;99.90
20442;DHT22;10380;52.102;20.614;2023-12-07T15:42:11;1.30;99.90
20442;DHT22;10380;52.102;20.614;2023-12-07T15:44:38;1.30;99.90